Time;durP1;ratioP1;P1;durP2;ratioP2;P2;SDS_P1;SDS_P2;PMS_P1;PMS_P2;Temp;Humidity;BMP_temperature;BMP_pressure;BME280_temperature;BME280_humidity;BME280_pressure;Samples;Min_cycle;Max_cycle;Signal;HPM_P1;HPM_P2
2023/08/16 00:01:16;;;;;;;10.27;5.65;;;18.80;99.90;;;;;;4940208;29;20712;-78
2023/08/16 00:03:43;;;;;;;6.15;5.05;;;18.80;99.90;;;;;;4940745;29;20178;-78
2023/08/16 00:06:13;;;;;;;14.52;6.18;;;18.80;99.90;;;;;;4939862;29;20292;-79
2023/08/16 00:08:40;;;;;;;9.10;6.10;;;18.70;99.90;;;;;;4956121;29;20177;-79
2023/08/16 00:11:05;;;;;;;7.00;5.40;;;18.60;99.90;;;;;;4940106;29;20182;-78
2023/08/16 00:13:32;;;;;;;6.57;5.85;;;18.60;99.90;;;;;;4956768;29;20178;-78
2023/08/16 00:15:58;;;;;;;6.38;5.72;;;18.60;99.90;;;;;;4956459;28;20202;-79
2023/08/16 00:18:23;;;;;;;11.10;5.78;;;18.50;99.90;;;;;;4940511;29;20192;-79
2023/08/16 00:20:49;;;;;;;6.40;5.68;;;18.50;99.90;;;;;;4940528;29;20189;-79
2023/08/16 00:23:14;;;;;;;6.53;5.88;;;18.50;99.90;;;;;;4940418;29;20182;-79
2023/08/16 00:25:43;;;;;;;8.23;5.95;;;18.50;99.90;;;;;;4940710;28;20182;-79
2023/08/16 00:28:08;;;;;;;8.02;6.30;;;18.50;99.90;;;;;;4940890;29;20268;-79
2023/08/16 00:30:34;;;;;;;7.72;5.65;;;18.50;99.90;;;;;;4941501;29;20216;-79
2023/08/16 00:32:59;;;;;;;8.23;5.95;;;18.40;99.90;;;;;;4940574;29;20216;-79
2023/08/16 00:35:25;;;;;;;9.18;5.40;;;18.50;99.90;;;;;;4956086;29;20269;-79
2023/08/16 00:37:52;;;;;;;5.90;5.30;;;18.60;99.90;;;;;;4957305;28;20608;-79
2023/08/16 00:40:17;;;;;;;6.57;5.35;;;18.60;99.90;;;;;;4940268;29;20197;-79
2023/08/16 00:42:43;;;;;;;7.53;5.55;;;18.50;99.90;;;;;;4940751;29;20178;-79
2023/08/16 00:45:09;;;;;;;7.78;5.55;;;18.50;99.90;;;;;;4940415;29;20229;-79
2023/08/16 00:47:35;;;;;;;10.30;5.32;;;18.40;99.90;;;;;;4940437;29;20217;-79
2023/08/16 00:50:01;;;;;;;8.50;5.60;;;18.30;99.90;;;;;;4941240;29;20276;-79
2023/08/16 00:52:27;;;;;;;6.35;5.22;;;18.30;99.90;;;;;;4940772;29;20193;-79
2023/08/16 00:54:54;;;;;;;7.00;5.20;;;18.30;99.90;;;;;;4940029;29;20170;-79
2023/08/16 00:57:20;;;;;;;6.47;5.38;;;18.30;99.90;;;;;;4939554;29;20233;-79
2023/08/16 00:59:46;;;;;;;6.82;4.47;;;18.30;99.90;;;;;;4940142;29;20201;-79
2023/08/16 08:50:53;;;;;;;8.05;5.13;;;27.00;99.90;;;;;;5167144;23;20264;-89
2023/08/16 08:53:26;;;;;;;8.00;5.38;;;27.10;99.90;;;;;;4976781;28;20184;-89
2023/08/16 08:55:56;;;;;;;6.25;5.20;;;27.20;99.90;;;;;;4981670;28;20227;-89
2023/08/16 08:58:27;;;;;;;5.97;5.22;;;27.00;99.90;;;;;;4994932;28;20184;-89
2023/08/16 09:01:28;;;;;;;6.95;5.80;;;26.70;99.90;;;;;;4996158;28;20196;-90
2023/08/16 09:04:00;;;;;;;7.97;5.97;;;26.40;99.90;;;;;;4994651;28;20176;-90
2023/08/16 09:06:39;;;;;;;9.93;5.75;;;26.10;99.90;;;;;;4995315;28;20196;-91
2023/08/16 09:09:12;;;;;;;8.10;5.60;;;25.90;99.90;;;;;;4996866;28;20190;-88
2023/08/16 09:11:44;;;;;;;7.35;5.40;;;25.40;99.90;;;;;;4998563;28;20176;-87
2023/08/16 09:14:30;;;;;;;7.93;5.50;;;25.00;99.90;;;;;;4996645;28;20230;-87
2023/08/16 09:16:58;;;;;;;5.68;5.18;;;24.70;99.90;;;;;;4996465;28;20204;-88
2023/08/16 09:19:44;;;;;;;8.27;6.20;;;24.50;99.90;;;;;;4997440;28;20203;-87
2023/08/16 09:22:17;;;;;;;6.20;5.60;;;24.40;99.90;;;;;;4997938;28;20168;-88
2023/08/16 09:24:43;;;;;;;6.43;5.85;;;24.60;99.90;;;;;;4996910;28;20168;-87
2023/08/16 09:27:20;;;;;;;6.97;5.65;;;24.80;99.90;;;;;;4997027;28;20231;-88
2023/08/16 09:29:45;;;;;;;8.88;5.82;;;25.10;99.90;;;;;;4998288;28;20179;-87
2023/08/16 09:32:24;;;;;;;6.43;5.82;;;25.40;99.90;;;;;;4994523;28;20185;-89
2023/08/16 11:35:58;;;;;;;7.00;6.35;;;28.00;99.90;;;;;;4850092;29;20217;-79
2023/08/16 11:38:24;;;;;;;5.50;5.00;;;28.00;99.80;;;;;;4851163;29;20200;-79
2023/08/16 11:40:51;;;;;;;5.20;4.70;;;28.00;99.00;;;;;;4866820;29;20205;-79
2023/08/16 11:43:17;;;;;;;6.25;4.20;;;27.80;98.50;;;;;;4865147;29;20247;-79
2023/08/16 11:45:49;;;;;;;5.32;4.72;;;27.60;98.90;;;;;;4852244;29;20613;-79
2023/08/16 11:48:16;;;;;;;4.90;4.40;;;27.50;99.60;;;;;;4851014;29;20181;-79
2023/08/16 11:50:42;;;;;;;6.55;5.95;;;27.50;99.90;;;;;;4867028;29;20186;-79
2023/08/16 11:53:08;;;;;;;8.88;6.60;;;27.60;99.90;;;;;;4866916;29;20189;-79
2023/08/16 11:55:33;;;;;;;4.57;4.18;;;27.80;99.90;;;;;;4866231;29;20684;-79
2023/08/16 11:58:08;;;;;;;4.43;4.03;;;28.40;99.40;;;;;;4865413;29;20181;-80
2023/08/16 12:00:36;;;;;;;4.93;4.43;;;28.70;99.10;;;;;;4865689;29;20209;-80
2023/08/16 12:03:03;;;;;;;8.20;4.35;;;28.90;98.10;;;;;;4865535;29;20185;-80
2023/08/16 12:05:36;;;;;;;4.68;4.22;;;28.80;97.00;;;;;;4865428;29;20196;-80
2023/08/16 12:08:06;;;;;;;5.50;5.00;;;28.70;96.90;;;;;;4865769;29;20177;-80
2023/08/16 12:10:32;;;;;;;5.65;3.92;;;28.80;96.70;;;;;;4864824;29;20270;-78
2023/08/16 12:12:58;;;;;;;5.93;4.07;;;28.80;95.50;;;;;;4865465;29;20185;-79
2023/08/16 12:15:26;;;;;;;3.95;3.53;;;28.70;95.80;;;;;;4865427;29;20185;-80
2023/08/16 12:17:53;;;;;;;4.00;3.47;;;28.70;95.80;;;;;;4851389;29;20220;-80
2023/08/16 12:20:19;;;;;;;5.78;3.90;;;28.80;95.10;;;;;;4867332;29;20238;-80
2023/08/16 12:22:45;;;;;;;4.53;3.72;;;28.90;96.00;;;;;;4867052;29;20645;-80
2023/08/16 12:25:11;;;;;;;4.82;3.47;;;29.20;96.20;;;;;;4851362;29;20673;-80
2023/08/16 12:27:36;;;;;;;4.20;3.80;;;29.40;94.40;;;;;;4866085;29;20208;-80
2023/08/16 12:30:04;;;;;;;5.10;3.60;;;29.60;94.50;;;;;;4866902;29;20184;-80
2023/08/16 12:32:30;;;;;;;3.75;3.45;;;29.60;93.70;;;;;;4866380;29;20189;-80
2023/08/16 12:34:56;;;;;;;3.83;3.50;;;29.60;93.20;;;;;;4864316;29;20252;-79
2023/08/16 12:37:22;;;;;;;3.50;3.20;;;29.80;92.50;;;;;;4866184;29;20233;-79
2023/08/16 12:39:47;;;;;;;4.75;3.78;;;30.00;92.60;;;;;;4852635;29;20249;-80
2023/08/16 12:42:13;;;;;;;5.22;3.72;;;29.80;92.10;;;;;;4862654;29;20210;-79
2023/08/16 12:44:38;;;;;;;6.57;3.80;;;29.70;91.90;;;;;;4862390;29;20249;-79
2023/08/16 12:47:04;;;;;;;3.67;3.38;;;30.00;91.50;;;;;;4858223;29;20572;-79
2023/08/16 12:49:30;;;;;;;4.45;3.20;;;29.70;91.60;;;;;;4858643;29;20191;-79
2023/08/16 12:51:55;;;;;;;5.95;3.65;;;29.90;92.10;;;;;;4859199;29;20185;-79
2023/08/16 12:54:21;;;;;;;5.45;3.30;;;30.10;92.20;;;;;;4858750;29;20185;-79
2023/08/16 12:56:46;;;;;;;3.92;3.53;;;30.10;92.50;;;;;;4843825;29;20213;-80
2023/08/16 12:59:12;;;;;;;5.25;3.72;;;30.00;93.10;;;;;;4858577;29;20224;-80
2023/08/16 13:01:38;;;;;;;6.25;3.67;;;30.00;92.20;;;;;;4858410;29;20181;-79
2023/08/16 13:04:04;;;;;;;5.00;3.60;;;29.70;91.80;;;;;;4859656;29;20185;-79
2023/08/16 13:06:30;;;;;;;5.72;3.30;;;29.50;92.70;;;;;;4860415;29;20205;-79
2023/08/16 13:08:55;;;;;;;4.22;3.40;;;29.40;92.10;;;;;;4861685;29;20189;-80
2023/08/16 13:11:21;;;;;;;4.25;3.20;;;29.20;91.80;;;;;;4860856;29;20265;-80
2023/08/16 13:13:47;;;;;;;4.97;3.30;;;29.10;92.00;;;;;;4845656;29;20185;-80
2023/08/16 13:16:12;;;;;;;4.45;3.20;;;29.10;92.40;;;;;;4846688;29;20212;-80
2023/08/16 13:18:40;;;;;;;4.03;3.65;;;29.10;92.80;;;;;;4844426;29;20185;-80
2023/08/16 13:21:05;;;;;;;6.63;3.33;;;29.30;92.20;;;;;;4859895;29;20276;-80
2023/08/16 13:23:31;;;;;;;3.90;3.58;;;29.40;92.10;;;;;;4859844;29;20212;-80
2023/08/16 13:25:57;;;;;;;4.15;3.25;;;29.40;91.90;;;;;;4861231;29;20212;-80
2023/08/16 13:28:23;;;;;;;6.18;3.50;;;29.30;92.80;;;;;;4860988;29;20228;-80
2023/08/16 13:30:48;;;;;;;12.13;3.58;;;29.20;92.70;;;;;;4860050;29;20656;-80
2023/08/16 13:33:14;;;;;;;7.78;4.13;;;29.20;92.20;;;;;;4859711;29;20180;-80
2023/08/16 13:35:46;;;;;;;7.85;3.70;;;29.10;92.50;;;;;;4846172;29;20204;-80
2023/08/16 13:38:13;;;;;;;7.28;3.63;;;29.00;92.60;;;;;;4845284;29;20245;-80
2023/08/16 13:40:40;;;;;;;3.97;3.55;;;28.90;92.00;;;;;;4845225;29;20243;-80
2023/08/16 13:43:05;;;;;;;8.73;3.70;;;28.90;92.10;;;;;;4860307;29;20256;-80
2023/08/16 13:45:31;;;;;;;5.13;3.97;;;28.90;93.20;;;;;;4860300;29;20668;-80
2023/08/16 13:47:57;;;;;;;6.55;3.80;;;28.90;95.00;;;;;;4859126;29;20215;-80
2023/08/16 13:50:26;;;;;;;3.83;3.53;;;29.00;94.00;;;;;;4859461;29;20193;-80
2023/08/16 13:52:51;;;;;;;6.07;3.33;;;29.30;94.30;;;;;;4860121;29;20191;-80
2023/08/16 13:55:17;;;;;;;4.15;3.72;;;29.60;94.10;;;;;;4859647;29;20193;-80
2023/08/16 13:57:44;;;;;;;4.18;3.70;;;29.70;92.50;;;;;;4859912;29;20227;-80
2023/08/16 14:00:10;;;;;;;4.90;3.60;;;29.80;93.50;;;;;;4860159;29;20216;-80
2023/08/16 14:02:36;;;;;;;3.78;3.38;;;29.90;93.30;;;;;;4845827;29;20240;-80
2023/08/16 14:05:03;;;;;;;5.90;3.40;;;30.10;91.20;;;;;;4859115;29;20676;-80
